sensor_id;sensor_type;location;lat;lon;timestamp;temperature;humidity
52016;DHT22;38032;53.326;6.472;2022-12-26T00:01:51;10.00;99.90
52016;DHT22;38032;53.326;6.472;2022-12-26T00:04:17;10.00;99.90
52016;DHT22;38032;53.326;6.472;2022-12-26T00:06:43;10.00;99.90
52016;DHT22;38032;53.326;6.472;2022-12-26T00:09:10;10.00;99.90
52016;DHT22;38032;53.326;6.472;2022-12-26T00:11:36;9.90;99.90
52016;DHT22;38032;53.326;6.472;2022-12-26T00:14:07;10.00;99.90
52016;DHT22;38032;53.326;6.472;2022-12-26T00:16:34;9.90;99.90
52016;DHT22;38032;53.326;6.472;2022-12-26T00:19:01;10.00;99.90
52016;DHT22;38032;53.326;6.472;2022-12-26T00:21:28;10.00;99.90
52016;DHT22;38032;53.326;6.472;2022-12-26T00:23:56;10.00;99.90
52016;DHT22;38032;53.326;6.472;2022-12-26T00:26:24;10.00;99.90
52016;DHT22;38032;53.326;6.472;2022-12-26T00:28:51;10.00;99.90
52016;DHT22;38032;53.326;6.472;2022-12-26T00:31:20;9.90;99.90
52016;DHT22;38032;53.326;6.472;2022-12-26T00:33:46;10.00;99.90
52016;DHT22;38032;53.326;6.472;2022-12-26T00:36:15;10.00;99.90
52016;DHT22;38032;53.326;6.472;2022-12-26T00:38:42;9.90;99.90
52016;DHT22;38032;53.326;6.472;2022-12-26T00:41:10;10.00;99.90
52016;DHT22;38032;53.326;6.472;2022-12-26T00:43:36;10.00;99.90
52016;DHT22;38032;53.326;6.472;2022-12-26T00:46:03;10.00;99.90
52016;DHT22;38032;53.326;6.472;2022-12-26T00:48:29;10.00;99.90
52016;DHT22;38032;53.326;6.472;2022-12-26T00:50:56;10.00;99.90
52016;DHT22;38032;53.326;6.472;2022-12-26T00:53:22;10.00;99.90
52016;DHT22;38032;53.326;6.472;2022-12-26T00:55:49;10.00;99.90
52016;DHT22;38032;53.326;6.472;2022-12-26T00:58:16;10.00;99.90
52016;DHT22;38032;53.326;6.472;2022-12-26T01:00:42;10.00;99.90
52016;DHT22;38032;53.326;6.472;2022-12-26T01:03:09;10.00;99.90
52016;DHT22;38032;53.326;6.472;2022-12-26T01:05:40;10.00;99.90
52016;DHT22;38032;53.326;6.472;2022-12-26T01:08:06;10.00;99.90
52016;DHT22;38032;53.326;6.472;2022-12-26T01:10:32;10.00;99.90
52016;DHT22;38032;53.326;6.472;2022-12-26T01:12:58;9.90;99.90
52016;DHT22;38032;53.326;6.472;2022-12-26T01:15:24;10.00;99.90
52016;DHT22;38032;53.326;6.472;2022-12-26T01:17:50;9.90;99.90
52016;DHT22;38032;53.326;6.472;2022-12-26T01:20:16;9.90;99.90
52016;DHT22;38032;53.326;6.472;2022-12-26T01:22:42;10.00;99.90
52016;DHT22;38032;53.326;6.472;2022-12-26T01:25:09;9.90;99.90
52016;DHT22;38032;53.326;6.472;2022-12-26T01:27:36;9.90;99.90
52016;DHT22;38032;53.326;6.472;2022-12-26T01:30:03;9.90;99.90
52016;DHT22;38032;53.326;6.472;2022-12-26T01:32:29;9.90;99.90
52016;DHT22;38032;53.326;6.472;2022-12-26T01:34:55;9.90;99.90
52016;DHT22;38032;53.326;6.472;2022-12-26T01:37:21;9.90;99.90
52016;DHT22;38032;53.326;6.472;2022-12-26T01:39:48;9.90;99.90
52016;DHT22;38032;53.326;6.472;2022-12-26T01:42:16;9.90;99.90
52016;DHT22;38032;53.326;6.472;2022-12-26T01:47:51;9.90;99.90
52016;DHT22;38032;53.326;6.472;2022-12-26T01:50:29;9.90;99.90
52016;DHT22;38032;53.326;6.472;2022-12-26T01:53:00;9.90;99.90
52016;DHT22;38032;53.326;6.472;2022-12-26T01:55:28;9.90;99.90
52016;DHT22;38032;53.326;6.472;2022-12-26T01:58:00;9.90;99.90
52016;DHT22;38032;53.326;6.472;2022-12-26T02:00:27;9.90;99.90
52016;DHT22;38032;53.326;6.472;2022-12-26T02:02:53;9.90;99.90
52016;DHT22;38032;53.326;6.472;2022-12-26T02:05:38;9.90;99.90
52016;DHT22;38032;53.326;6.472;2022-12-26T02:08:10;9.90;99.90
52016;DHT22;38032;53.326;6.472;2022-12-26T02:10:46;9.90;99.90
52016;DHT22;38032;53.326;6.472;2022-12-26T02:13:13;9.90;99.90
52016;DHT22;38032;53.326;6.472;2022-12-26T02:15:40;9.90;99.90
52016;DHT22;38032;53.326;6.472;2022-12-26T02:18:06;9.90;99.90
52016;DHT22;38032;53.326;6.472;2022-12-26T02:20:42;9.90;99.90
52016;DHT22;38032;53.326;6.472;2022-12-26T02:23:47;9.90;99.90
52016;DHT22;38032;53.326;6.472;2022-12-26T02:26:37;9.90;99.90
52016;DHT22;38032;53.326;6.472;2022-12-26T02:32:02;9.90;99.90
52016;DHT22;38032;53.326;6.472;2022-12-26T02:34:56;9.90;99.90
52016;DHT22;38032;53.326;6.472;2022-12-26T02:37:40;9.90;99.90
52016;DHT22;38032;53.326;6.472;2022-12-26T02:40:15;9.90;99.90
52016;DHT22;38032;53.326;6.472;2022-12-26T02:43:05;9.90;99.90
52016;DHT22;38032;53.326;6.472;2022-12-26T02:45:39;9.90;99.90
52016;DHT22;38032;53.326;6.472;2022-12-26T02:48:43;9.90;99.90
52016;DHT22;38032;53.326;6.472;2022-12-26T02:57:23;9.90;99.90
52016;DHT22;38032;53.326;6.472;2022-12-26T03:03:14;9.90;99.90
52016;DHT22;38032;53.326;6.472;2022-12-26T03:06:06;9.90;99.90
52016;DHT22;38032;53.326;6.472;2022-12-26T03:09:02;9.80;99.90
52016;DHT22;38032;53.326;6.472;2022-12-26T03:11:51;9.80;99.90
52016;DHT22;38032;53.326;6.472;2022-12-26T03:14:49;9.80;99.90
52016;DHT22;38032;53.326;6.472;2022-12-26T03:17:25;9.80;99.90
52016;DHT22;38032;53.326;6.472;2022-12-26T03:19:58;9.80;99.90
52016;DHT22;38032;53.326;6.472;2022-12-26T03:22:37;9.80;99.90
52016;DHT22;38032;53.326;6.472;2022-12-26T03:25:44;9.80;99.90
52016;DHT22;38032;53.326;6.472;2022-12-26T03:28:19;9.80;99.90
52016;DHT22;38032;53.326;6.472;2022-12-26T03:30:46;9.80;99.90
52016;DHT22;38032;53.326;6.472;2022-12-26T03:33:27;9.80;99.90
52016;DHT22;38032;53.326;6.472;2022-12-26T03:42:11;9.90;99.90
52016;DHT22;38032;53.326;6.472;2022-12-26T03:45:07;9.90;99.90
52016;DHT22;38032;53.326;6.472;2022-12-26T03:48:06;9.90;99.90
52016;DHT22;38032;53.326;6.472;2022-12-26T03:51:06;9.90;99.90
52016;DHT22;38032;53.326;6.472;2022-12-26T03:54:07;9.90;99.90
52016;DHT22;38032;53.326;6.472;2022-12-26T03:56:57;9.90;99.90
52016;DHT22;38032;53.326;6.472;2022-12-26T03:59:49;9.90;99.90
52016;DHT22;38032;53.326;6.472;2022-12-26T04:02:35;9.90;99.90
52016;DHT22;38032;53.326;6.472;2022-12-26T04:05:21;9.90;99.90
52016;DHT22;38032;53.326;6.472;2022-12-26T04:08:12;9.90;99.90
52016;DHT22;38032;53.326;6.472;2022-12-26T04:11:00;9.90;99.90
52016;DHT22;38032;53.326;6.472;2022-12-26T04:13:53;9.90;99.90
52016;DHT22;38032;53.326;6.472;2022-12-26T04:17:01;9.90;99.90
52016;DHT22;38032;53.326;6.472;2022-12-26T04:19:52;9.90;99.90
52016;DHT22;38032;53.326;6.472;2022-12-26T04:25:15;9.90;99.90
52016;DHT22;38032;53.326;6.472;2022-12-26T04:28:02;9.90;99.90
52016;DHT22;38032;53.326;6.472;2022-12-26T04:30:51;9.90;99.90
52016;DHT22;38032;53.326;6.472;2022-12-26T04:33:50;10.00;99.90
52016;DHT22;38032;53.326;6.472;2022-12-26T04:36:45;9.90;99.90
52016;DHT22;38032;53.326;6.472;2022-12-26T04:39:34;9.90;99.90
52016;DHT22;38032;53.326;6.472;2022-12-26T04:42:20;9.90;99.90
52016;DHT22;38032;53.326;6.472;2022-12-26T04:45:06;10.00;99.90
52016;DHT22;38032;53.326;6.472;2022-12-26T04:47:33;9.90;99.90
52016;DHT22;38032;53.326;6.472;2022-12-26T04:50:04;9.90;99.90
52016;DHT22;38032;53.326;6.472;2022-12-26T04:52:38;9.90;99.90
52016;DHT22;38032;53.326;6.472;2022-12-26T04:55:31;10.00;99.90
52016;DHT22;38032;53.326;6.472;2022-12-26T04:57:58;9.90;99.90
52016;DHT22;38032;53.326;6.472;2022-12-26T05:00:25;9.90;99.90
52016;DHT22;38032;53.326;6.472;2022-12-26T05:02:53;10.00;99.90
52016;DHT22;38032;53.326;6.472;2022-12-26T05:05:41;10.00;99.90
52016;DHT22;38032;53.326;6.472;2022-12-26T05:08:40;10.00;99.90
52016;DHT22;38032;53.326;6.472;2022-12-26T05:11:26;10.00;99.90
52016;DHT22;38032;53.326;6.472;2022-12-26T05:13:53;10.00;99.90
52016;DHT22;38032;53.326;6.472;2022-12-26T05:16:20;10.00;99.90
52016;DHT22;38032;53.326;6.472;2022-12-26T05:19:05;10.00;99.90
52016;DHT22;38032;53.326;6.472;2022-12-26T05:21:52;10.00;99.90
52016;DHT22;38032;53.326;6.472;2022-12-26T05:24:38;10.00;99.90
52016;DHT22;38032;53.326;6.472;2022-12-26T05:27:24;10.00;99.90
52016;DHT22;38032;53.326;6.472;2022-12-26T05:30:11;10.00;99.90
52016;DHT22;38032;53.326;6.472;2022-12-26T05:32:36;10.00;99.90
52016;DHT22;38032;53.326;6.472;2022-12-26T05:35:21;10.00;99.90
52016;DHT22;38032;53.326;6.472;2022-12-26T05:37:47;10.00;99.90
52016;DHT22;38032;53.326;6.472;2022-12-26T05:40:13;10.00;99.90
52016;DHT22;38032;53.326;6.472;2022-12-26T05:42:39;10.00;99.90
52016;DHT22;38032;53.326;6.472;2022-12-26T05:45:06;9.90;99.90
52016;DHT22;38032;53.326;6.472;2022-12-26T05:47:32;9.90;99.90
52016;DHT22;38032;53.326;6.472;2022-12-26T05:49:57;9.90;99.90
52016;DHT22;38032;53.326;6.472;2022-12-26T05:52:23;9.90;99.90
52016;DHT22;38032;53.326;6.472;2022-12-26T05:54:49;9.90;99.90
52016;DHT22;38032;53.326;6.472;2022-12-26T05:57:15;9.90;99.90
52016;DHT22;38032;53.326;6.472;2022-12-26T05:59:41;9.90;99.90
52016;DHT22;38032;53.326;6.472;2022-12-26T06:02:07;9.90;99.90
52016;DHT22;38032;53.326;6.472;2022-12-26T06:04:33;9.90;99.90
52016;DHT22;38032;53.326;6.472;2022-12-26T06:07:01;9.90;99.90
52016;DHT22;38032;53.326;6.472;2022-12-26T06:09:27;9.90;99.90
52016;DHT22;38032;53.326;6.472;2022-12-26T06:11:53;9.90;99.90
52016;DHT22;38032;53.326;6.472;2022-12-26T06:14:19;9.90;99.90
52016;DHT22;38032;53.326;6.472;2022-12-26T06:16:45;9.90;99.90
52016;DHT22;38032;53.326;6.472;2022-12-26T06:19:10;9.90;99.90
52016;DHT22;38032;53.326;6.472;2022-12-26T06:21:36;9.90;99.90
52016;DHT22;38032;53.326;6.472;2022-12-26T06:24:02;9.90;99.90
52016;DHT22;38032;53.326;6.472;2022-12-26T06:26:28;9.90;99.90
52016;DHT22;38032;53.326;6.472;2022-12-26T06:28:54;9.90;99.90
52016;DHT22;38032;53.326;6.472;2022-12-26T06:31:22;9.90;99.90
52016;DHT22;38032;53.326;6.472;2022-12-26T06:33:50;9.90;99.90
52016;DHT22;38032;53.326;6.472;2022-12-26T06:36:19;9.90;99.90
52016;DHT22;38032;53.326;6.472;2022-12-26T06:38:45;9.90;99.90
52016;DHT22;38032;53.326;6.472;2022-12-26T06:41:14;9.90;99.90
52016;DHT22;38032;53.326;6.472;2022-12-26T06:43:41;9.90;99.90
52016;DHT22;38032;53.326;6.472;2022-12-26T06:46:09;9.90;99.90
52016;DHT22;38032;53.326;6.472;2022-12-26T06:48:36;9.90;99.90
52016;DHT22;38032;53.326;6.472;2022-12-26T06:51:06;9.90;99.90
52016;DHT22;38032;53.326;6.472;2022-12-26T06:53:34;9.90;99.90
52016;DHT22;38032;53.326;6.472;2022-12-26T06:56:07;9.90;99.90
52016;DHT22;38032;53.326;6.472;2022-12-26T06:58:34;9.90;99.90
52016;DHT22;38032;53.326;6.472;2022-12-26T07:01:05;10.00;99.90
52016;DHT22;38032;53.326;6.472;2022-12-26T07:03:31;9.90;99.90
52016;DHT22;38032;53.326;6.472;2022-12-26T07:06:02;10.00;99.90
52016;DHT22;38032;53.326;6.472;2022-12-26T07:08:29;10.00;99.90
52016;DHT22;38032;53.326;6.472;2022-12-26T07:10:54;10.00;99.90
52016;DHT22;38032;53.326;6.472;2022-12-26T07:13:20;10.00;99.90
52016;DHT22;38032;53.326;6.472;2022-12-26T07:15:46;10.00;99.90
52016;DHT22;38032;53.326;6.472;2022-12-26T07:18:12;10.00;99.90
52016;DHT22;38032;53.326;6.472;2022-12-26T07:20:38;10.00;99.90
52016;DHT22;38032;53.326;6.472;2022-12-26T07:23:04;10.00;99.90
52016;DHT22;38032;53.326;6.472;2022-12-26T07:25:29;10.00;99.90
52016;DHT22;38032;53.326;6.472;2022-12-26T07:27:55;10.10;99.90
52016;DHT22;38032;53.326;6.472;2022-12-26T07:30:21;10.00;99.90
52016;DHT22;38032;53.326;6.472;2022-12-26T07:32:47;10.10;99.90
52016;DHT22;38032;53.326;6.472;2022-12-26T07:35:13;10.10;99.90
52016;DHT22;38032;53.326;6.472;2022-12-26T07:37:39;10.10;99.90
52016;DHT22;38032;53.326;6.472;2022-12-26T07:40:05;10.10;99.90
52016;DHT22;38032;53.326;6.472;2022-12-26T07:42:31;10.10;99.90
52016;DHT22;38032;53.326;6.472;2022-12-26T07:44:57;10.00;99.90
52016;DHT22;38032;53.326;6.472;2022-12-26T07:47:23;10.00;99.90
52016;DHT22;38032;53.326;6.472;2022-12-26T07:49:48;10.00;99.90
52016;DHT22;38032;53.326;6.472;2022-12-26T07:52:14;10.00;99.90
52016;DHT22;38032;53.326;6.472;2022-12-26T07:54:40;9.90;99.90
52016;DHT22;38032;53.326;6.472;2022-12-26T07:57:06;9.90;99.90
52016;DHT22;38032;53.326;6.472;2022-12-26T07:59:32;9.90;99.90
52016;DHT22;38032;53.326;6.472;2022-12-26T08:01:58;9.90;99.90
52016;DHT22;38032;53.326;6.472;2022-12-26T08:04:24;9.90;99.90
52016;DHT22;38032;53.326;6.472;2022-12-26T08:06:50;9.90;99.90
52016;DHT22;38032;53.326;6.472;2022-12-26T08:09:16;9.90;99.90
52016;DHT22;38032;53.326;6.472;2022-12-26T08:11:42;9.90;99.90
52016;DHT22;38032;53.326;6.472;2022-12-26T08:14:10;9.90;99.90
52016;DHT22;38032;53.326;6.472;2022-12-26T08:16:36;9.80;99.90
52016;DHT22;38032;53.326;6.472;2022-12-26T08:19:03;9.80;99.90
52016;DHT22;38032;53.326;6.472;2022-12-26T08:21:29;9.80;99.90
52016;DHT22;38032;53.326;6.472;2022-12-26T08:23:55;9.80;99.90
52016;DHT22;38032;53.326;6.472;2022-12-26T08:26:21;9.80;99.90
52016;DHT22;38032;53.326;6.472;2022-12-26T08:28:49;9.80;99.90
52016;DHT22;38032;53.326;6.472;2022-12-26T08:31:16;9.80;99.90
52016;DHT22;38032;53.326;6.472;2022-12-26T08:33:43;9.90;99.90
52016;DHT22;38032;53.326;6.472;2022-12-26T08:36:11;9.90;99.90
52016;DHT22;38032;53.326;6.472;2022-12-26T08:38:38;9.90;99.90
52016;DHT22;38032;53.326;6.472;2022-12-26T08:41:05;9.90;99.90
52016;DHT22;38032;53.326;6.472;2022-12-26T08:43:31;9.90;99.90
52016;DHT22;38032;53.326;6.472;2022-12-26T08:46:00;10.00;99.90
52016;DHT22;38032;53.326;6.472;2022-12-26T08:48:27;10.00;99.90
52016;DHT22;38032;53.326;6.472;2022-12-26T08:50:56;10.10;99.90
52016;DHT22;38032;53.326;6.472;2022-12-26T08:53:22;10.10;99.90
52016;DHT22;38032;53.326;6.472;2022-12-26T08:55:48;10.10;99.90
52016;DHT22;38032;53.326;6.472;2022-12-26T08:58:14;10.10;99.90
52016;DHT22;38032;53.326;6.472;2022-12-26T09:00:40;10.10;99.90
52016;DHT22;38032;53.326;6.472;2022-12-26T09:03:06;10.10;99.90
52016;DHT22;38032;53.326;6.472;2022-12-26T09:05:32;10.10;99.90
52016;DHT22;38032;53.326;6.472;2022-12-26T09:07:58;10.10;99.90
52016;DHT22;38032;53.326;6.472;2022-12-26T09:10:25;10.10;99.90
52016;DHT22;38032;53.326;6.472;2022-12-26T09:12:51;10.10;99.90
52016;DHT22;38032;53.326;6.472;2022-12-26T09:15:17;10.10;99.90
52016;DHT22;38032;53.326;6.472;2022-12-26T09:17:42;10.10;99.90
52016;DHT22;38032;53.326;6.472;2022-12-26T09:20:11;10.10;99.90
52016;DHT22;38032;53.326;6.472;2022-12-26T09:22:36;10.20;99.90
52016;DHT22;38032;53.326;6.472;2022-12-26T09:25:18;10.10;99.90
52016;DHT22;38032;53.326;6.472;2022-12-26T09:27:44;10.20;99.90
52016;DHT22;38032;53.326;6.472;2022-12-26T09:30:10;10.10;99.90
52016;DHT22;38032;53.326;6.472;2022-12-26T09:32:36;10.20;99.90
52016;DHT22;38032;53.326;6.472;2022-12-26T09:35:03;10.20;99.90
52016;DHT22;38032;53.326;6.472;2022-12-26T09:37:29;10.20;99.90
52016;DHT22;38032;53.326;6.472;2022-12-26T09:39:54;10.20;99.90
52016;DHT22;38032;53.326;6.472;2022-12-26T09:42:39;10.20;99.90
52016;DHT22;38032;53.326;6.472;2022-12-26T09:45:14;10.20;99.90
52016;DHT22;38032;53.326;6.472;2022-12-26T09:47:56;10.20;99.90
52016;DHT22;38032;53.326;6.472;2022-12-26T09:50:30;10.10;99.90
52016;DHT22;38032;53.326;6.472;2022-12-26T09:53:02;10.10;99.90
52016;DHT22;38032;53.326;6.472;2022-12-26T09:55:55;10.00;99.90
52016;DHT22;38032;53.326;6.472;2022-12-26T10:03:37;10.10;99.90
52016;DHT22;38032;53.326;6.472;2022-12-26T10:06:16;10.00;99.90
52016;DHT22;38032;53.326;6.472;2022-12-26T10:09:01;10.00;99.90
52016;DHT22;38032;53.326;6.472;2022-12-26T10:14:52;9.90;99.90
52016;DHT22;38032;53.326;6.472;2022-12-26T10:17:36;9.80;99.90
52016;DHT22;38032;53.326;6.472;2022-12-26T10:20:09;9.70;99.90
52016;DHT22;38032;53.326;6.472;2022-12-26T10:23:05;9.70;99.90
52016;DHT22;38032;53.326;6.472;2022-12-26T10:25:51;9.80;99.90
52016;DHT22;38032;53.326;6.472;2022-12-26T10:28:32;9.80;99.90
52016;DHT22;38032;53.326;6.472;2022-12-26T10:31:01;9.80;99.90
52016;DHT22;38032;53.326;6.472;2022-12-26T10:33:38;9.80;99.90
52016;DHT22;38032;53.326;6.472;2022-12-26T10:36:15;9.70;99.90
52016;DHT22;38032;53.326;6.472;2022-12-26T10:38:44;9.70;99.90
52016;DHT22;38032;53.326;6.472;2022-12-26T10:41:24;9.60;99.90
52016;DHT22;38032;53.326;6.472;2022-12-26T10:43:50;9.50;99.90
52016;DHT22;38032;53.326;6.472;2022-12-26T10:48:52;9.40;99.90
52016;DHT22;38032;53.326;6.472;2022-12-26T10:51:18;9.30;99.90
52016;DHT22;38032;53.326;6.472;2022-12-26T10:53:48;9.40;99.90
52016;DHT22;38032;53.326;6.472;2022-12-26T10:56:15;9.30;99.90
52016;DHT22;38032;53.326;6.472;2022-12-26T10:58:43;9.30;99.90
52016;DHT22;38032;53.326;6.472;2022-12-26T11:01:36;9.30;99.90
52016;DHT22;38032;53.326;6.472;2022-12-26T11:04:17;9.40;99.90
52016;DHT22;38032;53.326;6.472;2022-12-26T11:06:43;9.40;99.90
52016;DHT22;38032;53.326;6.472;2022-12-26T11:09:40;9.50;99.90
52016;DHT22;38032;53.326;6.472;2022-12-26T11:12:33;9.60;99.90
52016;DHT22;38032;53.326;6.472;2022-12-26T11:15:04;9.60;99.90
52016;DHT22;38032;53.326;6.472;2022-12-26T11:17:34;9.70;99.90
52016;DHT22;38032;53.326;6.472;2022-12-26T11:22:40;9.80;99.90
52016;DHT22;38032;53.326;6.472;2022-12-26T11:27:37;9.80;99.90
52016;DHT22;38032;53.326;6.472;2022-12-26T11:30:18;9.80;99.90
52016;DHT22;38032;53.326;6.472;2022-12-26T11:32:47;9.90;99.90
52016;DHT22;38032;53.326;6.472;2022-12-26T11:35:22;9.80;99.90
52016;DHT22;38032;53.326;6.472;2022-12-26T11:37:54;9.80;99.90
52016;DHT22;38032;53.326;6.472;2022-12-26T11:40:24;9.70;99.90
52016;DHT22;38032;53.326;6.472;2022-12-26T11:42:56;9.70;99.90
52016;DHT22;38032;53.326;6.472;2022-12-26T11:45:25;9.70;99.90
52016;DHT22;38032;53.326;6.472;2022-12-26T11:47:54;9.60;99.90
52016;DHT22;38032;53.326;6.472;2022-12-26T11:50:25;9.60;99.90
52016;DHT22;38032;53.326;6.472;2022-12-26T11:53:04;9.60;99.90
52016;DHT22;38032;53.326;6.472;2022-12-26T11:55:33;9.50;99.90
52016;DHT22;38032;53.326;6.472;2022-12-26T12:03:07;9.40;99.90
52016;DHT22;38032;53.326;6.472;2022-12-26T12:08:30;9.40;99.90
52016;DHT22;38032;53.326;6.472;2022-12-26T12:11:15;9.40;99.90
52016;DHT22;38032;53.326;6.472;2022-12-26T12:14:03;9.40;99.90
52016;DHT22;38032;53.326;6.472;2022-12-26T12:19:25;9.50;99.90
52016;DHT22;38032;53.326;6.472;2022-12-26T12:22:00;9.50;99.90
52016;DHT22;38032;53.326;6.472;2022-12-26T12:24:52;9.50;99.90
52016;DHT22;38032;53.326;6.472;2022-12-26T12:30:03;9.50;99.90
52016;DHT22;38032;53.326;6.472;2022-12-26T12:38:01;9.50;99.90
52016;DHT22;38032;53.326;6.472;2022-12-26T12:40:45;9.40;99.90
52016;DHT22;38032;53.326;6.472;2022-12-26T12:43:30;9.40;99.90
52016;DHT22;38032;53.326;6.472;2022-12-26T12:49:20;9.40;99.90
52016;DHT22;38032;53.326;6.472;2022-12-26T12:52:25;9.40;99.90
52016;DHT22;38032;53.326;6.472;2022-12-26T12:58:10;9.40;99.90
52016;DHT22;38032;53.326;6.472;2022-12-26T13:00:44;9.40;99.90
52016;DHT22;38032;53.326;6.472;2022-12-26T13:03:26;9.30;99.90
52016;DHT22;38032;53.326;6.472;2022-12-26T13:06:02;9.30;99.90
52016;DHT22;38032;53.326;6.472;2022-12-26T13:08:37;9.20;99.90
52016;DHT22;38032;53.326;6.472;2022-12-26T13:14:04;9.10;99.90
52016;DHT22;38032;53.326;6.472;2022-12-26T13:16:38;9.10;99.90
52016;DHT22;38032;53.326;6.472;2022-12-26T13:19:16;9.10;99.90
52016;DHT22;38032;53.326;6.472;2022-12-26T13:21:45;9.00;99.90
52016;DHT22;38032;53.326;6.472;2022-12-26T13:24:38;8.90;99.90
52016;DHT22;38032;53.326;6.472;2022-12-26T13:27:08;9.00;99.90
52016;DHT22;38032;53.326;6.472;2022-12-26T13:29:39;9.00;99.90
52016;DHT22;38032;53.326;6.472;2022-12-26T13:32:19;9.00;99.90
52016;DHT22;38032;53.326;6.472;2022-12-26T13:34:46;9.00;99.90
52016;DHT22;38032;53.326;6.472;2022-12-26T13:42:36;9.10;99.90
52016;DHT22;38032;53.326;6.472;2022-12-26T13:48:01;9.00;99.90
52016;DHT22;38032;53.326;6.472;2022-12-26T13:50:50;8.90;99.90
52016;DHT22;38032;53.326;6.472;2022-12-26T13:55:52;8.90;99.90
52016;DHT22;38032;53.326;6.472;2022-12-26T14:06:40;8.90;99.90
52016;DHT22;38032;53.326;6.472;2022-12-26T14:09:17;8.80;99.90
52016;DHT22;38032;53.326;6.472;2022-12-26T14:11:56;8.70;99.90
52016;DHT22;38032;53.326;6.472;2022-12-26T14:22:40;8.40;99.90
52016;DHT22;38032;53.326;6.472;2022-12-26T14:28:26;8.30;99.90
52016;DHT22;38032;53.326;6.472;2022-12-26T14:31:12;8.20;99.90
52016;DHT22;38032;53.326;6.472;2022-12-26T14:34:23;8.20;99.90
52016;DHT22;38032;53.326;6.472;2022-12-26T14:36:51;8.10;99.90
52016;DHT22;38032;53.326;6.472;2022-12-26T14:39:24;8.00;99.90
52016;DHT22;38032;53.326;6.472;2022-12-26T14:44:52;8.00;99.90
52016;DHT22;38032;53.326;6.472;2022-12-26T14:55:55;8.00;99.90
52016;DHT22;38032;53.326;6.472;2022-12-26T14:58:40;7.90;99.90
52016;DHT22;38032;53.326;6.472;2022-12-26T15:11:51;7.80;99.90
52016;DHT22;38032;53.326;6.472;2022-12-26T15:14:45;7.80;99.90
52016;DHT22;38032;53.326;6.472;2022-12-26T15:17:29;7.70;99.90
52016;DHT22;38032;53.326;6.472;2022-12-26T15:22:50;7.70;99.90
52016;DHT22;38032;53.326;6.472;2022-12-26T15:25:24;7.70;99.90
52016;DHT22;38032;53.326;6.472;2022-12-26T15:30:40;7.70;99.90
52016;DHT22;38032;53.326;6.472;2022-12-26T15:33:29;7.70;99.90
52016;DHT22;38032;53.326;6.472;2022-12-26T15:36:22;7.60;99.90
52016;DHT22;38032;53.326;6.472;2022-12-26T15:39:00;7.60;99.90
52016;DHT22;38032;53.326;6.472;2022-12-26T15:41:41;7.60;99.90
52016;DHT22;38032;53.326;6.472;2022-12-26T15:44:15;7.50;99.90
52016;DHT22;38032;53.326;6.472;2022-12-26T15:46:53;7.50;99.90
52016;DHT22;38032;53.326;6.472;2022-12-26T15:52:27;7.40;99.90
52016;DHT22;38032;53.326;6.472;2022-12-26T15:55:03;7.30;99.90
52016;DHT22;38032;53.326;6.472;2022-12-26T15:57:54;7.30;99.90
52016;DHT22;38032;53.326;6.472;2022-12-26T16:00:25;7.20;99.90
52016;DHT22;38032;53.326;6.472;2022-12-26T16:03:09;7.20;99.90
52016;DHT22;38032;53.326;6.472;2022-12-26T16:11:14;7.00;99.90
52016;DHT22;38032;53.326;6.472;2022-12-26T16:13:58;7.00;99.90
52016;DHT22;38032;53.326;6.472;2022-12-26T16:16:32;6.90;99.90
52016;DHT22;38032;53.326;6.472;2022-12-26T16:19:14;6.80;99.90
52016;DHT22;38032;53.326;6.472;2022-12-26T16:21:43;6.80;99.90
52016;DHT22;38032;53.326;6.472;2022-12-26T16:24:28;6.70;99.90
52016;DHT22;38032;53.326;6.472;2022-12-26T16:27:00;6.60;99.90
52016;DHT22;38032;53.326;6.472;2022-12-26T16:29:29;6.60;99.90
52016;DHT22;38032;53.326;6.472;2022-12-26T16:32:03;6.60;99.90
52016;DHT22;38032;53.326;6.472;2022-12-26T16:34:34;6.60;99.90
52016;DHT22;38032;53.326;6.472;2022-12-26T16:37:01;6.60;99.90
52016;DHT22;38032;53.326;6.472;2022-12-26T16:39:27;6.50;99.90
52016;DHT22;38032;53.326;6.472;2022-12-26T16:42:26;6.60;99.90
52016;DHT22;38032;53.326;6.472;2022-12-26T16:44:54;6.50;99.90
52016;DHT22;38032;53.326;6.472;2022-12-26T16:47:20;6.50;99.90
52016;DHT22;38032;53.326;6.472;2022-12-26T16:49:47;6.50;99.90
52016;DHT22;38032;53.326;6.472;2022-12-26T16:52:32;6.40;99.90
52016;DHT22;38032;53.326;6.472;2022-12-26T16:57:49;6.40;99.90
52016;DHT22;38032;53.326;6.472;2022-12-26T17:00:17;6.40;99.90
52016;DHT22;38032;53.326;6.472;2022-12-26T17:02:46;6.30;99.90
52016;DHT22;38032;53.326;6.472;2022-12-26T17:05:25;6.20;99.90
52016;DHT22;38032;53.326;6.472;2022-12-26T17:07:53;6.20;99.90
52016;DHT22;38032;53.326;6.472;2022-12-26T17:10:24;6.20;99.90
52016;DHT22;38032;53.326;6.472;2022-12-26T17:12:51;6.20;99.90
52016;DHT22;38032;53.326;6.472;2022-12-26T17:15:20;6.20;99.90
52016;DHT22;38032;53.326;6.472;2022-12-26T17:17:47;6.20;99.90
52016;DHT22;38032;53.326;6.472;2022-12-26T17:20:26;6.00;99.90
52016;DHT22;38032;53.326;6.472;2022-12-26T17:22:55;6.10;99.90
52016;DHT22;38032;53.326;6.472;2022-12-26T17:25:30;6.10;99.90
52016;DHT22;38032;53.326;6.472;2022-12-26T17:30:36;6.00;99.90
52016;DHT22;38032;53.326;6.472;2022-12-26T17:33:20;6.00;99.90
52016;DHT22;38032;53.326;6.472;2022-12-26T17:35:51;6.00;99.90
52016;DHT22;38032;53.326;6.472;2022-12-26T17:38:24;5.90;99.90
52016;DHT22;38032;53.326;6.472;2022-12-26T17:40:56;5.90;99.90
52016;DHT22;38032;53.326;6.472;2022-12-26T17:43:29;5.90;99.90
52016;DHT22;38032;53.326;6.472;2022-12-26T17:45:55;5.90;99.90
52016;DHT22;38032;53.326;6.472;2022-12-26T17:48:21;5.90;99.90
52016;DHT22;38032;53.326;6.472;2022-12-26T17:50:52;5.80;99.90
52016;DHT22;38032;53.326;6.472;2022-12-26T17:53:25;5.80;99.90
52016;DHT22;38032;53.326;6.472;2022-12-26T17:55:53;5.80;99.90
52016;DHT22;38032;53.326;6.472;2022-12-26T17:58:21;5.80;99.90
52016;DHT22;38032;53.326;6.472;2022-12-26T18:00:47;5.80;99.90
52016;DHT22;38032;53.326;6.472;2022-12-26T18:03:14;5.80;99.90
52016;DHT22;38032;53.326;6.472;2022-12-26T18:05:40;5.80;99.90
52016;DHT22;38032;53.326;6.472;2022-12-26T18:08:06;5.80;99.90
52016;DHT22;38032;53.326;6.472;2022-12-26T18:10:34;5.70;99.90
52016;DHT22;38032;53.326;6.472;2022-12-26T18:13:01;5.70;99.90
52016;DHT22;38032;53.326;6.472;2022-12-26T18:15:28;5.70;99.90
52016;DHT22;38032;53.326;6.472;2022-12-26T18:17:55;5.70;99.90
52016;DHT22;38032;53.326;6.472;2022-12-26T18:20:24;5.70;99.90
52016;DHT22;38032;53.326;6.472;2022-12-26T18:22:51;5.70;99.90
52016;DHT22;38032;53.326;6.472;2022-12-26T18:25:20;5.80;99.90
52016;DHT22;38032;53.326;6.472;2022-12-26T18:27:46;5.80;99.90
52016;DHT22;38032;53.326;6.472;2022-12-26T18:30:16;5.80;99.90
52016;DHT22;38032;53.326;6.472;2022-12-26T18:32:43;5.80;99.90
52016;DHT22;38032;53.326;6.472;2022-12-26T18:35:09;5.90;99.90
52016;DHT22;38032;53.326;6.472;2022-12-26T18:37:35;5.90;99.90
52016;DHT22;38032;53.326;6.472;2022-12-26T18:40:01;5.90;99.90
52016;DHT22;38032;53.326;6.472;2022-12-26T18:42:27;5.90;99.90